Time;durP1;ratioP1;P1;durP2;ratioP2;P2;SDS_P1;SDS_P2;PMS_P1;PMS_P2;Temp;Humidity;BMP_temperature;BMP_pressure;BME280_temperature;BME280_humidity;BME280_pressure;Samples;Min_cycle;Max_cycle;Signal;HPM_P1;HPM_P2
2021/07/03 00:00:36;;;;;;;17.10;13.30;;;17.10;99.90;;;;;;5052855;28;20208;-73
2021/07/03 00:03:03;;;;;;;17.30;13.45;;;17.10;99.90;;;;;;5046862;28;20203;-75
2021/07/03 00:05:31;;;;;;;18.08;14.38;;;17.10;99.90;;;;;;5053332;28;20224;-73
2021/07/03 00:07:59;;;;;;;14.25;12.05;;;17.10;99.90;;;;;;5049853;28;20203;-74
2021/07/03 00:10:27;;;;;;;19.05;14.02;;;17.10;99.90;;;;;;5043159;28;20296;-73
2021/07/03 00:12:55;;;;;;;17.13;13.98;;;17.00;99.90;;;;;;5047066;28;20211;-73
2021/07/03 00:15:22;;;;;;;16.75;12.82;;;17.00;99.90;;;;;;5049693;28;20280;-74
2021/07/03 00:17:50;;;;;;;22.80;14.20;;;17.00;99.90;;;;;;5053059;28;20685;-72
2021/07/03 00:20:17;;;;;;;19.83;14.63;;;17.10;99.90;;;;;;5048137;28;20209;-73
2021/07/03 00:22:44;;;;;;;16.50;14.07;;;17.10;99.90;;;;;;5046317;28;20674;-73
2021/07/03 00:25:13;;;;;;;23.05;14.32;;;17.10;99.90;;;;;;5049059;28;20281;-74
2021/07/03 00:27:42;;;;;;;17.38;14.48;;;17.10;99.90;;;;;;5044156;28;20586;-73
2021/07/03 00:30:12;;;;;;;15.25;13.15;;;17.10;99.90;;;;;;5047141;28;20294;-74
2021/07/03 00:32:40;;;;;;;19.60;13.15;;;17.10;99.90;;;;;;5036533;28;20638;-74
2021/07/03 00:35:09;;;;;;;19.50;14.68;;;17.10;99.90;;;;;;5059346;28;20234;-74
2021/07/03 00:37:36;;;;;;;19.98;15.07;;;17.10;99.90;;;;;;5052210;28;20626;-73
2021/07/03 00:40:05;;;;;;;19.20;14.38;;;17.10;99.90;;;;;;5045368;28;20236;-73
2021/07/03 00:42:32;;;;;;;23.20;15.05;;;17.10;99.90;;;;;;5044049;28;20293;-73
2021/07/03 00:45:01;;;;;;;15.10;13.23;;;17.00;99.90;;;;;;5051690;28;20225;-74
2021/07/03 00:47:28;;;;;;;14.38;12.75;;;17.00;99.90;;;;;;5050499;28;20288;-72
2021/07/03 00:49:57;;;;;;;22.27;14.02;;;16.90;99.90;;;;;;5047395;28;20232;-73
2021/07/03 00:52:25;;;;;;;16.35;12.00;;;16.90;99.90;;;;;;5037870;28;20207;-73
2021/07/03 00:54:52;;;;;;;17.02;13.70;;;16.90;99.90;;;;;;5049998;28;20223;-72
2021/07/03 00:57:20;;;;;;;17.92;14.88;;;16.90;99.90;;;;;;5040566;28;20664;-73
2021/07/03 00:59:48;;;;;;;23.95;15.48;;;16.80;99.90;;;;;;5043241;28;20207;-73
2021/07/03 01:02:18;;;;;;;19.35;14.20;;;16.80;99.90;;;;;;5049570;28;20650;-75
2021/07/03 01:04:46;;;;;;;20.00;14.50;;;16.70;99.90;;;;;;5041104;28;20687;-72
2021/07/03 01:07:14;;;;;;;20.02;13.98;;;16.70;99.90;;;;;;5054741;28;20318;-72
2021/07/03 01:09:41;;;;;;;21.75;16.50;;;16.70;99.90;;;;;;5047600;28;20607;-74
2021/07/03 01:12:10;;;;;;;17.20;13.90;;;16.70;99.90;;;;;;5052234;28;20569;-74
2021/07/03 01:17:13;;;;;;;17.02;14.93;;;16.70;99.90;;;;;;5181529;22;20252;-73
2021/07/03 01:22:13;;;;;;;21.42;16.30;;;16.60;99.90;;;;;;5004972;28;20224;-73
2021/07/03 01:24:40;;;;;;;16.95;14.32;;;16.60;99.90;;;;;;5017832;28;20229;-74
2021/07/03 01:27:09;;;;;;;26.70;17.00;;;16.60;99.90;;;;;;5013226;28;20236;-74
2021/07/03 01:29:37;;;;;;;17.45;14.55;;;16.60;99.90;;;;;;4998354;28;20257;-73
2021/07/03 01:32:05;;;;;;;22.88;17.13;;;16.50;99.90;;;;;;5002689;28;20202;-72
2021/07/03 01:34:33;;;;;;;19.33;15.23;;;16.50;99.90;;;;;;5003084;28;20195;-73
2021/07/03 01:37:00;;;;;;;19.77;15.43;;;16.50;99.90;;;;;;5007018;28;20234;-73
2021/07/03 01:39:29;;;;;;;19.13;17.10;;;16.40;99.90;;;;;;5000718;28;20194;-73
2021/07/03 01:41:57;;;;;;;20.98;16.15;;;16.40;99.90;;;;;;4996895;28;20211;-73
2021/07/03 01:44:25;;;;;;;23.80;16.75;;;16.40;99.90;;;;;;5001914;28;20369;-73
2021/07/03 01:46:54;;;;;;;25.20;17.50;;;16.30;99.90;;;;;;5003021;28;20387;-72
2021/07/03 01:49:21;;;;;;;22.70;16.05;;;16.30;99.90;;;;;;4996182;28;20197;-73
2021/07/03 01:51:49;;;;;;;18.95;15.10;;;16.30;99.90;;;;;;5001758;28;20211;-73
2021/07/03 01:54:16;;;;;;;27.55;19.73;;;16.20;99.90;;;;;;5009965;28;20233;-73
2021/07/03 01:56:57;;;;;;;20.48;16.67;;;16.20;99.90;;;;;;4998130;28;20231;-72
2021/07/03 01:59:25;;;;;;;21.33;17.50;;;16.20;99.90;;;;;;4989443;28;20193;-73
2021/07/03 02:01:53;;;;;;;21.88;17.67;;;16.20;99.90;;;;;;5008217;28;20259;-73
2021/07/03 02:04:20;;;;;;;24.55;18.50;;;16.10;99.90;;;;;;5005015;28;20577;-72
2021/07/03 02:06:47;;;;;;;19.23;17.17;;;16.10;99.90;;;;;;5010149;28;20235;-72
2021/07/03 02:09:15;;;;;;;19.63;17.73;;;16.10;99.90;;;;;;5003720;28;20217;-72
2021/07/03 02:11:43;;;;;;;20.58;16.88;;;16.00;99.90;;;;;;5009827;28;20209;-72
2021/07/03 02:14:12;;;;;;;23.50;19.92;;;16.00;99.90;;;;;;5003063;28;20218;-72
2021/07/03 02:16:40;;;;;;;27.63;18.38;;;16.00;99.90;;;;;;5012688;28;20220;-72
2021/07/03 02:19:08;;;;;;;18.67;16.60;;;15.90;99.90;;;;;;5009358;28;20200;-72
2021/07/03 02:21:36;;;;;;;24.13;16.77;;;15.90;99.90;;;;;;5001393;28;20209;-71
2021/07/03 02:24:04;;;;;;;24.08;18.70;;;16.00;99.90;;;;;;5006512;28;20224;-72
2021/07/03 02:26:31;;;;;;;22.40;20.20;;;15.90;99.90;;;;;;4995639;28;20224;-72
2021/07/03 02:28:58;;;;;;;19.33;17.42;;;15.90;99.90;;;;;;5003820;28;20707;-72
2021/07/03 02:31:27;;;;;;;19.15;16.80;;;15.80;99.90;;;;;;5005326;28;20767;-72
2021/07/03 02:33:54;;;;;;;22.13;17.35;;;15.80;99.90;;;;;;5002249;28;20197;-73
2021/07/03 02:36:22;;;;;;;25.63;18.98;;;15.80;99.90;;;;;;4998497;28;20221;-71
2021/07/03 02:38:49;;;;;;;21.73;18.67;;;15.80;99.90;;;;;;5005231;28;20204;-73
2021/07/03 02:41:16;;;;;;;23.50;17.98;;;15.70;99.90;;;;;;5004610;28;20692;-72
2021/07/03 02:43:44;;;;;;;21.83;16.10;;;15.70;99.90;;;;;;4994408;28;20600;-73
2021/07/03 02:46:11;;;;;;;22.70;17.08;;;15.70;99.90;;;;;;5002779;28;20230;-72
2021/07/03 02:48:40;;;;;;;22.13;18.73;;;15.60;99.90;;;;;;4991742;28;20546;-72
2021/07/03 02:51:07;;;;;;;21.35;17.85;;;15.60;99.90;;;;;;5010733;28;20663;-72
2021/07/03 02:53:34;;;;;;;21.20;17.70;;;15.60;99.90;;;;;;5006457;28;20227;-72
2021/07/03 02:56:01;;;;;;;29.33;19.02;;;15.60;99.90;;;;;;5004458;28;20241;-72
2021/07/03 02:58:28;;;;;;;25.30;18.52;;;15.40;99.90;;;;;;5012445;28;20644;-73
2021/07/03 03:00:56;;;;;;;24.00;17.95;;;15.60;99.90;;;;;;5003598;28;20201;-72
2021/07/03 03:03:23;;;;;;;19.45;17.42;;;15.50;99.90;;;;;;4999467;28;20228;-72
2021/07/03 03:05:51;;;;;;;23.33;19.30;;;15.50;99.90;;;;;;5004191;28;20230;-72
2021/07/03 03:08:20;;;;;;;26.48;19.20;;;15.50;99.90;;;;;;5002987;28;20563;-72
2021/07/03 03:10:47;;;;;;;28.13;19.77;;;15.50;99.90;;;;;;4998999;28;20536;-73
2021/07/03 03:13:14;;;;;;;23.80;19.02;;;15.50;99.90;;;;;;5004284;28;20212;-72
2021/07/03 03:15:41;;;;;;;22.10;19.38;;;15.50;99.90;;;;;;5002384;28;20212;-72
2021/07/03 03:18:09;;;;;;;26.98;21.17;;;15.50;99.90;;;;;;5005191;28;20603;-72
2021/07/03 03:20:36;;;;;;;26.25;18.27;;;15.50;99.90;;;;;;5006505;28;20577;-72
2021/07/03 03:23:04;;;;;;;23.77;19.13;;;15.40;99.90;;;;;;5000999;28;20216;-72
2021/07/03 03:25:31;;;;;;;28.08;18.98;;;15.40;99.90;;;;;;5000537;28;20222;-72
2021/07/03 03:27:59;;;;;;;25.88;20.23;;;15.40;99.90;;;;;;4998162;28;20219;-73
2021/07/03 03:30:26;;;;;;;23.45;20.30;;;15.40;99.90;;;;;;5010494;28;20207;-72
2021/07/03 03:32:53;;;;;;;18.92;16.92;;;15.40;99.90;;;;;;4999554;28;20221;-72
2021/07/03 03:35:21;;;;;;;22.60;17.42;;;15.50;99.90;;;;;;5004466;28;20197;-72
2021/07/03 03:37:48;;;;;;;24.95;19.23;;;15.50;99.90;;;;;;4998878;28;20205;-72
2021/07/03 03:40:20;;;;;;;25.25;19.50;;;15.60;99.90;;;;;;4997636;28;20208;-73
2021/07/03 03:42:47;;;;;;;22.67;17.98;;;15.60;99.90;;;;;;5005206;28;20549;-72
2021/07/03 03:45:15;;;;;;;22.95;18.55;;;15.60;99.90;;;;;;4999526;28;20284;-72
2021/07/03 03:47:42;;;;;;;24.15;19.23;;;15.70;99.90;;;;;;5003561;28;20225;-72
2021/07/03 03:50:11;;;;;;;28.25;18.98;;;15.70;99.90;;;;;;5001725;28;20212;-72
2021/07/03 03:52:38;;;;;;;22.15;19.83;;;15.70;99.90;;;;;;5009757;28;20208;-72
2021/07/03 03:55:08;;;;;;;25.48;17.63;;;15.70;99.90;;;;;;5004769;28;20201;-73
2021/07/03 03:57:36;;;;;;;21.05;18.58;;;15.80;99.90;;;;;;5010733;28;20217;-73
2021/07/03 04:00:07;;;;;;;19.73;17.63;;;15.80;99.90;;;;;;5006434;28;20205;-72
2021/07/03 04:02:34;;;;;;;23.83;21.23;;;15.80;99.90;;;;;;4998275;28;20209;-72
2021/07/03 04:05:01;;;;;;;22.58;20.17;;;15.90;99.90;;;;;;5008129;28;20225;-72
2021/07/03 04:07:28;;;;;;;28.27;20.05;;;16.00;99.90;;;;;;4996816;28;20230;-72
2021/07/03 04:09:56;;;;;;;26.42;19.23;;;16.10;99.90;;;;;;5001426;28;20224;-73
2021/07/03 04:12:24;;;;;;;21.13;18.67;;;16.50;99.90;;;;;;5001147;28;20210;-73
2021/07/03 04:14:52;;;;;;;19.83;17.73;;;17.10;99.90;;;;;;5006046;28;20508;-72
2021/07/03 04:17:20;;;;;;;18.27;15.97;;;17.80;99.90;;;;;;5003723;28;20225;-72
2021/07/03 04:19:47;;;;;;;17.50;13.67;;;18.50;99.90;;;;;;4999405;28;20454;-73
2021/07/03 04:22:14;;;;;;;17.90;13.37;;;19.20;99.90;;;;;;4996700;28;20919;-72
2021/07/03 04:24:41;;;;;;;16.57;13.63;;;20.00;99.90;;;;;;5003614;28;20455;-72
2021/07/03 04:27:08;;;;;;;15.10;12.63;;;20.50;99.90;;;;;;5004743;28;20483;-73
2021/07/03 04:29:36;;;;;;;13.93;12.53;;;20.90;99.90;;;;;;5003168;28;20451;-73
2021/07/03 04:32:05;;;;;;;15.20;13.53;;;21.40;99.90;;;;;;5007484;28;20450;-73
2021/07/03 04:34:32;;;;;;;16.77;13.53;;;21.70;99.90;;;;;;5003120;28;20462;-72
2021/07/03 04:37:00;;;;;;;14.83;13.17;;;22.20;99.90;;;;;;5008683;28;20544;-72
2021/07/03 04:39:27;;;;;;;18.03;13.13;;;22.30;99.90;;;;;;4977158;28;20455;-73
2021/07/03 04:41:55;;;;;;;20.70;13.57;;;22.40;99.90;;;;;;5001911;28;20460;-73
2021/07/03 04:44:22;;;;;;;15.67;13.10;;;22.40;99.90;;;;;;5003563;28;20544;-73
2021/07/03 04:46:49;;;;;;;15.80;13.43;;;22.60;99.90;;;;;;4993123;28;20610;-73
2021/07/03 04:49:18;;;;;;;15.90;12.57;;;23.10;99.90;;;;;;4999796;28;20451;-73
2021/07/03 04:51:45;;;;;;;16.57;14.13;;;23.50;99.90;;;;;;5004129;28;20460;-73
2021/07/03 04:54:12;;;;;;;15.73;13.10;;;23.80;99.90;;;;;;5000238;28;20465;-73
2021/07/03 04:56:40;;;;;;;15.30;12.93;;;24.40;99.90;;;;;;5003033;28;20460;-73
2021/07/03 04:59:07;;;;;;;14.27;12.17;;;25.00;99.90;;;;;;4997304;28;20461;-72
2021/07/03 05:01:34;;;;;;;13.87;12.40;;;25.40;99.10;;;;;;4998936;28;20452;-73
2021/07/03 05:04:03;;;;;;;12.13;10.60;;;25.80;97.70;;;;;;4997839;28;20445;-73
2021/07/03 05:06:31;;;;;;;12.60;10.70;;;26.30;96.50;;;;;;5004726;28;20483;-73
2021/07/03 05:09:00;;;;;;;15.43;10.33;;;26.60;95.30;;;;;;5001101;28;20463;-74
2021/07/03 05:11:27;;;;;;;13.30;10.37;;;27.00;94.20;;;;;;5002052;28;20448;-73
2021/07/03 05:13:55;;;;;;;11.77;10.03;;;27.10;93.40;;;;;;5001380;28;20449;-73
2021/07/03 05:16:22;;;;;;;11.47;10.33;;;27.50;92.70;;;;;;4998245;28;20980;-73
2021/07/03 05:18:49;;;;;;;11.07;9.67;;;27.70;92.20;;;;;;5002676;28;20459;-73
2021/07/03 05:21:16;;;;;;;10.07;8.27;;;27.90;91.60;;;;;;5000281;28;20547;-72
2021/07/03 05:23:45;;;;;;;9.73;8.73;;;28.30;91.00;;;;;;4996522;28;20466;-72
2021/07/03 05:26:12;;;;;;;11.40;9.60;;;28.50;90.10;;;;;;5004520;28;20502;-73
2021/07/03 05:28:39;;;;;;;9.97;8.37;;;28.50;89.90;;;;;;5010862;28;20946;-74
2021/07/03 05:31:08;;;;;;;12.13;9.63;;;28.60;89.20;;;;;;5004562;28;20492;-73
2021/07/03 05:33:35;;;;;;;14.63;8.17;;;28.80;89.10;;;;;;5004184;28;20460;-73
2021/07/03 05:36:03;;;;;;;9.77;8.73;;;29.00;86.70;;;;;;5005012;28;20500;-73
2021/07/03 05:38:39;;;;;;;10.80;6.83;;;29.10;86.00;;;;;;4999666;28;20449;-73
2021/07/03 05:41:08;;;;;;;9.30;7.87;;;29.20;84.90;;;;;;4965483;28;20911;-72
2021/07/03 05:43:36;;;;;;;7.43;6.37;;;29.30;84.80;;;;;;4985518;28;20442;-74
2021/07/03 05:46:03;;;;;;;9.40;7.10;;;29.20;83.10;;;;;;4981852;28;20489;-74
2021/07/03 05:48:30;;;;;;;7.90;6.67;;;29.50;83.50;;;;;;4982151;28;20528;-72
2021/07/03 05:50:58;;;;;;;6.97;5.80;;;29.70;82.80;;;;;;5003480;28;20519;-74
2021/07/03 05:53:25;;;;;;;12.70;6.40;;;29.90;81.40;;;;;;5004845;28;20452;-74
2021/07/03 05:55:52;;;;;;;6.17;5.17;;;30.00;80.20;;;;;;4998048;28;20971;-73
2021/07/03 05:58:21;;;;;;;12.00;5.20;;;30.10;79.50;;;;;;5005589;28;20452;-73
2021/07/03 06:00:49;;;;;;;6.83;5.87;;;30.00;79.00;;;;;;5002071;28;20506;-73
2021/07/03 06:03:16;;;;;;;6.93;5.77;;;30.00;79.60;;;;;;5004202;28;20452;-72
2021/07/03 06:05:45;;;;;;;7.30;4.80;;;30.20;78.80;;;;;;5003367;28;20492;-72
2021/07/03 06:08:12;;;;;;;7.90;5.47;;;30.40;77.90;;;;;;5002122;28;20453;-74
2021/07/03 06:10:41;;;;;;;9.10;5.10;;;30.30;76.60;;;;;;4998371;28;20451;-73
2021/07/03 06:13:09;;;;;;;10.90;4.83;;;30.50;76.00;;;;;;5004172;28;20528;-74
2021/07/03 06:15:39;;;;;;;7.50;5.00;;;30.30;75.80;;;;;;5001004;28;20440;-74
2021/07/03 06:18:06;;;;;;;9.30;5.57;;;30.10;76.60;;;;;;4995781;28;20476;-72
2021/07/03 06:20:33;;;;;;;5.47;4.40;;;30.20;76.90;;;;;;5006249;28;20455;-73
2021/07/03 06:23:01;;;;;;;9.40;5.60;;;30.30;77.20;;;;;;4998456;28;20445;-74
2021/07/03 06:25:28;;;;;;;10.20;5.40;;;30.50;76.10;;;;;;5005963;28;20455;-74
2021/07/03 06:27:56;;;;;;;7.30;5.80;;;30.70;74.50;;;;;;5008081;28;21271;-72
2021/07/03 06:30:23;;;;;;;7.17;5.13;;;30.70;75.10;;;;;;5010866;28;20945;-73
2021/07/03 06:32:53;;;;;;;8.90;5.27;;;31.00;74.40;;;;;;5002322;28;20445;-73
2021/07/03 06:35:20;;;;;;;8.70;4.30;;;30.90;75.00;;;;;;5009233;28;20445;-74
2021/07/03 06:37:47;;;;;;;9.30;5.33;;;30.90;73.50;;;;;;5004526;28;20452;-74
2021/07/03 06:40:14;;;;;;;7.20;5.13;;;31.10;73.70;;;;;;4999690;28;20448;-74
2021/07/03 06:42:42;;;;;;;6.23;5.60;;;31.30;73.50;;;;;;5006826;28;20771;-74
2021/07/03 06:45:09;;;;;;;8.30;4.83;;;31.30;72.30;;;;;;5007403;28;20544;-73
2021/07/03 06:47:37;;;;;;;7.60;5.23;;;31.70;72.80;;;;;;5002000;28;20483;-75
2021/07/03 06:50:06;;;;;;;7.27;5.80;;;31.70;72.20;;;;;;4996301;28;20487;-74
2021/07/03 06:52:33;;;;;;;9.77;5.13;;;31.50;71.80;;;;;;5009201;28;20447;-73
2021/07/03 06:55:00;;;;;;;7.80;4.73;;;31.70;71.90;;;;;;4996040;28;20451;-74
2021/07/03 06:57:28;;;;;;;6.43;4.10;;;31.60;71.00;;;;;;5000337;28;20472;-73
2021/07/03 06:59:55;;;;;;;7.73;4.93;;;31.50;70.30;;;;;;4998939;28;20472;-73
2021/07/03 07:02:22;;;;;;;5.50;4.67;;;31.90;72.20;;;;;;4998994;28;20445;-74
2021/07/03 07:04:49;;;;;;;7.10;4.80;;;31.80;69.70;;;;;;4999614;28;20447;-76
2021/07/03 07:07:18;;;;;;;5.73;5.10;;;32.10;69.70;;;;;;4997689;28;20508;-73
2021/07/03 07:09:46;;;;;;;6.63;4.67;;;32.00;69.80;;;;;;5006412;28;20440;-74
2021/07/03 07:12:13;;;;;;;7.70;4.80;;;32.00;69.10;;;;;;5002600;28;20444;-75
2021/07/03 07:14:42;;;;;;;6.70;5.73;;;32.10;69.90;;;;;;4995215;28;20452;-73
2021/07/03 07:17:09;;;;;;;10.83;6.90;;;32.50;68.30;;;;;;5008954;28;20468;-73
2021/07/03 07:19:37;;;;;;;13.53;8.33;;;32.50;67.80;;;;;;4995673;28;20459;-75
2021/07/03 07:22:04;;;;;;;9.80;7.20;;;32.50;68.80;;;;;;4999709;28;20467;-73
2021/07/03 07:24:33;;;;;;;9.20;7.03;;;32.70;67.60;;;;;;5004135;28;20776;-73
2021/07/03 07:27:00;;;;;;;9.57;6.57;;;33.00;66.70;;;;;;5011870;28;20498;-72
2021/07/03 07:29:27;;;;;;;10.23;6.10;;;33.20;67.70;;;;;;5007142;28;20445;-74
2021/07/03 07:31:54;;;;;;;11.77;7.63;;;33.50;65.10;;;;;;5001884;28;20448;-73
2021/07/03 07:34:22;;;;;;;10.90;6.37;;;32.70;65.60;;;;;;4999362;28;20950;-72
2021/07/03 07:36:49;;;;;;;10.43;7.27;;;32.70;66.20;;;;;;5005086;28;20479;-74
2021/07/03 07:39:16;;;;;;;13.13;7.13;;;32.70;65.70;;;;;;5004677;28;20441;-74
2021/07/03 07:41:47;;;;;;;9.97;7.10;;;32.70;66.10;;;;;;5004331;28;20461;-72
2021/07/03 07:44:14;;;;;;;14.00;6.70;;;32.90;65.10;;;;;;5007194;28;20452;-74
2021/07/03 07:46:41;;;;;;;13.10;7.30;;;33.20;64.50;;;;;;4993557;28;20588;-74
2021/07/03 07:49:08;;;;;;;13.40;8.30;;;33.30;62.60;;;;;;4996073;28;20923;-76
2021/07/03 07:51:35;;;;;;;11.23;7.60;;;33.50;63.20;;;;;;4989372;28;20456;-73
2021/07/03 07:54:04;;;;;;;11.33;7.63;;;33.60;62.50;;;;;;4983391;28;20438;-73
2021/07/03 07:56:31;;;;;;;12.10;7.30;;;33.80;63.10;;;;;;5005656;28;20467;-74
2021/07/03 07:59:00;;;;;;;13.30;8.90;;;33.80;62.40;;;;;;5005094;28;20456;-72
2021/07/03 08:01:28;;;;;;;8.33;6.33;;;33.80;62.70;;;;;;4991070;28;20447;-73
2021/07/03 08:03:56;;;;;;;6.70;5.20;;;33.30;61.20;;;;;;4999864;28;20445;-73
2021/07/03 08:06:24;;;;;;;10.20;5.80;;;33.00;60.60;;;;;;4995023;28;20492;-73
2021/07/03 08:08:51;;;;;;;11.10;5.07;;;32.90;62.40;;;;;;5000043;28;20451;-74
2021/07/03 08:11:21;;;;;;;7.63;4.60;;;33.30;62.60;;;;;;5000803;28;20452;-74
2021/07/03 08:13:48;;;;;;;8.67;5.80;;;33.70;59.90;;;;;;4989090;28;20454;-74
2021/07/03 08:16:17;;;;;;;14.93;7.07;;;34.00;60.30;;;;;;5006775;28;20511;-74
2021/07/03 08:18:44;;;;;;;17.73;11.40;;;33.60;60.20;;;;;;4998775;28;20453;-71
2021/07/03 08:21:12;;;;;;;8.40;4.87;;;34.10;61.30;;;;;;4986962;28;20460;-72
2021/07/03 08:23:39;;;;;;;11.70;7.17;;;34.10;57.70;;;;;;4989855;28;20461;-72
2021/07/03 08:26:06;;;;;;;6.80;5.33;;;33.90;58.00;;;;;;5000940;28;21005;-72
2021/07/03 08:28:35;;;;;;;10.20;5.90;;;33.90;58.20;;;;;;5012951;28;20547;-74
2021/07/03 08:31:04;;;;;;;7.47;5.77;;;34.00;59.60;;;;;;5005062;28;20449;-72
2021/07/03 08:33:32;;;;;;;10.00;6.53;;;34.30;60.10;;;;;;5001099;28;20463;-73
2021/07/03 08:35:59;;;;;;;9.17;6.20;;;34.10;59.50;;;;;;5000804;28;20465;-72
2021/07/03 08:38:28;;;;;;;8.30;6.50;;;34.30;59.60;;;;;;5004079;28;20494;-72
2021/07/03 08:40:56;;;;;;;7.33;5.57;;;33.90;59.70;;;;;;5006567;28;20536;-72
2021/07/03 08:43:24;;;;;;;7.90;5.13;;;32.70;60.80;;;;;;4993026;28;20994;-72
2021/07/03 08:45:56;;;;;;;6.13;5.23;;;32.30;63.30;;;;;;5008908;28;20470;-70
2021/07/03 08:48:24;;;;;;;4.60;4.00;;;32.10;62.60;;;;;;4992764;28;20473;-72
2021/07/03 08:50:58;;;;;;;8.30;4.57;;;31.80;62.60;;;;;;4992925;28;20453;-74
2021/07/03 08:53:25;;;;;;;5.70;4.10;;;32.00;63.20;;;;;;4973620;28;20740;-73
2021/07/03 08:55:53;;;;;;;6.20;4.23;;;32.60;62.70;;;;;;4983155;28;20466;-75
2021/07/03 08:58:20;;;;;;;5.20;4.50;;;32.40;61.70;;;;;;4994245;28;20444;-73
2021/07/03 09:00:48;;;;;;;8.53;4.10;;;33.20;60.00;;;;;;4998096;28;20455;-73
2021/07/03 09:03:18;;;;;;;5.77;3.87;;;33.50;59.70;;;;;;5000994;28;20658;-72
2021/07/03 09:05:50;;;;;;;7.33;5.37;;;33.50;58.40;;;;;;4984043;28;21892;-71
2021/07/03 09:08:19;;;;;;;6.87;5.30;;;33.60;59.80;;;;;;5004434;28;20564;-71
2021/07/03 09:10:47;;;;;;;7.70;4.23;;;33.70;58.80;;;;;;5001074;28;20448;-72
2021/07/03 09:13:15;;;;;;;7.50;4.10;;;33.30;58.90;;;;;;4997145;28;20437;-70
2021/07/03 09:15:43;;;;;;;5.17;4.07;;;33.30;58.90;;;;;;4993485;28;20502;-71
2021/07/03 09:18:12;;;;;;;4.90;3.47;;;33.60;58.20;;;;;;4997658;28;20453;-72
2021/07/03 09:20:40;;;;;;;5.20;3.33;;;33.20;58.50;;;;;;4993455;28;20850;-71
2021/07/03 09:23:11;;;;;;;5.80;3.47;;;33.00;58.10;;;;;;5003105;28;20455;-70
2021/07/03 09:25:43;;;;;;;6.10;4.23;;;32.90;57.80;;;;;;4991224;28;20973;-70
2021/07/03 09:28:15;;;;;;;4.90;3.40;;;32.80;59.50;;;;;;5004368;28;20488;-71
2021/07/03 09:30:44;;;;;;;4.80;4.00;;;32.90;59.10;;;;;;4988170;28;20449;-70
2021/07/03 09:33:16;;;;;;;4.53;3.90;;;33.00;59.70;;;;;;4979358;28;20575;-71
2021/07/03 09:35:43;;;;;;;7.23;3.20;;;32.60;59.20;;;;;;4988568;28;20449;-70
2021/07/03 09:38:13;;;;;;;9.43;4.07;;;32.20;61.30;;;;;;4994082;28;20440;-68
2021/07/03 09:40:42;;;;;;;8.53;3.80;;;32.10;59.30;;;;;;5003673;28;20455;-68
2021/07/03 09:43:11;;;;;;;3.97;3.53;;;32.30;57.80;;;;;;4986698;28;20452;-71
2021/07/03 09:45:49;;;;;;;4.80;3.57;;;32.60;59.20;;;;;;4992664;28;20528;-69
2021/07/03 09:48:16;;;;;;;5.20;3.60;;;32.50;59.60;;;;;;4997232;28;20493;-69
2021/07/03 09:50:45;;;;;;;5.43;3.80;;;32.40;60.60;;;;;;5004207;28;20810;-69
2021/07/03 09:53:12;;;;;;;6.30;5.03;;;32.10;61.20;;;;;;5003998;28;20452;-71
2021/07/03 09:55:42;;;;;;;6.13;4.00;;;31.90;60.50;;;;;;5000169;28;20820;-70
2021/07/03 09:58:09;;;;;;;4.80;2.73;;;32.00;59.00;;;;;;4997970;28;20473;-72
2021/07/03 10:00:38;;;;;;;4.80;4.10;;;32.00;57.90;;;;;;5002426;28;20444;-69
2021/07/03 10:03:07;;;;;;;5.00;4.20;;;31.70;58.50;;;;;;5004153;28;20939;-70
2021/07/03 10:05:38;;;;;;;5.87;3.90;;;31.50;58.40;;;;;;5000880;28;20480;-70
2021/07/03 10:08:11;;;;;;;7.30;5.07;;;31.50;58.60;;;;;;5005031;28;20487;-69
2021/07/03 10:10:44;;;;;;;11.97;7.37;;;31.50;58.60;;;;;;4977564;28;20456;-69
2021/07/03 10:13:17;;;;;;;6.13;4.07;;;31.30;59.30;;;;;;4993336;28;20511;-71
2021/07/03 10:15:44;;;;;;;6.10;4.43;;;31.10;58.70;;;;;;4988211;28;20931;-71
2021/07/03 10:18:15;;;;;;;3.90;3.50;;;31.20;60.40;;;;;;4990610;28;20966;-71
2021/07/03 10:20:43;;;;;;;6.90;4.50;;;31.40;57.70;;;;;;4991926;28;20480;-71
2021/07/03 10:23:10;;;;;;;3.50;3.17;;;31.40;59.00;;;;;;4985020;28;20452;-70
2021/07/03 10:25:40;;;;;;;7.57;4.70;;;31.40;58.50;;;;;;5005470;28;20451;-73
2021/07/03 10:28:11;;;;;;;9.40;5.60;;;30.70;60.30;;;;;;5001488;28;20480;-71
2021/07/03 10:30:41;;;;;;;7.63;5.43;;;30.60;63.10;;;;;;4984863;28;20527;-72
2021/07/03 10:33:13;;;;;;;5.77;3.73;;;31.20;63.50;;;;;;4985944;28;20450;-71
2021/07/03 10:35:46;;;;;;;6.00;3.23;;;31.70;60.50;;;;;;5012192;23;20460;-67
2021/07/03 10:38:24;;;;;;;3.60;2.93;;;31.50;58.60;;;;;;5007375;28;20448;-68
2021/07/03 10:40:54;;;;;;;5.20;3.30;;;31.40;59.40;;;;;;4997090;28;20539;-68
2021/07/03 10:43:23;;;;;;;7.00;4.33;;;30.80;61.30;;;;;;5003095;28;20443;-67
2021/07/03 10:45:52;;;;;;;6.23;4.10;;;29.90;61.00;;;;;;5014089;28;20468;-67
2021/07/03 10:48:22;;;;;;;6.20;3.47;;;29.20;63.50;;;;;;5013693;28;20533;-67
2021/07/03 10:50:50;;;;;;;5.23;3.10;;;28.80;65.50;;;;;;5022307;28;20453;-71
2021/07/03 10:53:27;;;;;;;5.90;2.63;;;28.40;64.80;;;;;;5016148;28;20466;-65
2021/07/03 10:55:55;;;;;;;4.63;3.10;;;27.80;65.80;;;;;;5026929;28;20852;-65
2021/07/03 10:58:30;;;;;;;5.03;3.20;;;27.50;68.10;;;;;;5018862;28;20442;-65
2021/07/03 11:01:08;;;;;;;4.33;3.53;;;27.30;68.20;;;;;;5024894;28;20461;-66
2021/07/03 11:03:44;;;;;;;4.03;3.10;;;27.30;67.90;;;;;;5016604;28;20471;-65
2021/07/03 11:06:15;;;;;;;4.10;3.00;;;27.40;68.70;;;;;;5014918;28;20829;-66
2021/07/03 11:08:43;;;;;;;4.87;3.33;;;27.50;68.60;;;;;;5024419;28;20483;-66
2021/07/03 11:11:11;;;;;;;3.07;2.77;;;27.50;69.80;;;;;;5025827;28;20536;-66
2021/07/03 11:13:40;;;;;;;4.77;2.73;;;27.40;70.00;;;;;;5023713;28;20463;-66
2021/07/03 11:16:09;;;;;;;3.03;2.63;;;27.30;67.30;;;;;;5023239;28;20485;-66
2021/07/03 11:18:39;;;;;;;4.90;3.40;;;27.00;66.90;;;;;;5028857;28;20494;-65
2021/07/03 11:21:07;;;;;;;5.27;3.00;;;26.70;69.30;;;;;;5023933;28;20807;-65
2021/07/03 11:23:35;;;;;;;3.37;2.80;;;26.80;70.60;;;;;;5031269;28;20455;-65
2021/07/03 11:26:09;;;;;;;5.60;3.70;;;26.80;70.70;;;;;;5021089;28;20916;-65
2021/07/03 11:28:36;;;;;;;6.20;3.43;;;26.80;69.60;;;;;;5017731;28;20963;-66
2021/07/03 11:31:05;;;;;;;3.93;2.80;;;26.80;71.00;;;;;;5015435;28;20456;-66
2021/07/03 11:33:33;;;;;;;4.70;2.70;;;26.70;71.40;;;;;;5013829;28;20440;-65
2021/07/03 11:36:03;;;;;;;3.40;3.07;;;26.50;71.60;;;;;;5013316;28;20480;-66
2021/07/03 11:38:30;;;;;;;4.47;3.23;;;26.60;71.70;;;;;;5026324;28;20924;-65
2021/07/03 11:41:00;;;;;;;3.20;2.60;;;26.70;71.30;;;;;;5027208;28;20829;-68
2021/07/03 11:43:29;;;;;;;5.50;3.70;;;26.70;72.30;;;;;;5024963;28;20442;-66
2021/07/03 11:45:56;;;;;;;4.33;2.83;;;26.80;72.40;;;;;;5020156;28;20980;-65
2021/07/03 11:48:26;;;;;;;6.13;2.90;;;26.70;71.30;;;;;;5013006;28;20844;-65
2021/07/03 11:50:57;;;;;;;7.50;3.20;;;26.70;71.90;;;;;;5018184;28;20454;-65
2021/07/03 11:53:27;;;;;;;4.70;3.73;;;26.80;73.00;;;;;;5021226;28;20465;-66
2021/07/03 11:55:56;;;;;;;5.67;3.97;;;26.80;72.50;;;;;;5018825;28;20803;-66
2021/07/03 11:58:25;;;;;;;4.23;3.77;;;26.90;71.40;;;;;;5007314;28;20459;-66
2021/07/03 12:00:54;;;;;;;5.93;3.23;;;26.80;70.80;;;;;;5017261;28;20448;-68
2021/07/03 12:03:26;;;;;;;5.00;4.00;;;26.60;72.30;;;;;;5022945;28;20512;-69
2021/07/03 12:05:54;;;;;;;4.50;3.70;;;26.40;73.40;;;;;;5028316;28;20467;-69
2021/07/03 12:08:22;;;;;;;5.30;3.63;;;26.50;74.30;;;;;;5005865;28;20485;-67
2021/07/03 12:10:51;;;;;;;4.40;3.27;;;26.40;74.40;;;;;;5006866;28;20803;-68
2021/07/03 12:13:20;;;;;;;5.10;4.20;;;26.70;75.00;;;;;;5008858;28;20452;-67
2021/07/03 12:15:49;;;;;;;4.33;3.27;;;26.80;74.50;;;;;;4997255;28;20455;-66
2021/07/03 12:18:27;;;;;;;4.00;3.30;;;26.60;74.80;;;;;;4999783;28;20441;-66
2021/07/03 13:22:00;;;;;;;6.07;4.17;;;26.20;77.20;;;;;;5031304;28;20419;-84
2021/07/03 13:24:27;;;;;;;5.77;3.83;;;26.30;77.80;;;;;;5034855;28;20463;-83
2021/07/03 13:26:54;;;;;;;3.57;2.70;;;26.30;77.80;;;;;;5029493;28;20460;-84
2021/07/03 13:29:23;;;;;;;4.70;3.67;;;26.50;76.30;;;;;;5027328;28;20589;-84
2021/07/03 13:31:50;;;;;;;4.10;3.57;;;26.50;76.30;;;;;;5033656;28;20443;-85
2021/07/03 13:34:18;;;;;;;4.40;3.90;;;26.50;76.30;;;;;;5024298;28;20447;-85
2021/07/03 13:36:46;;;;;;;5.93;4.03;;;26.50;76.00;;;;;;5032352;28;20468;-85
2021/07/03 13:39:15;;;;;;;4.63;3.20;;;26.60;76.80;;;;;;5031991;28;20444;-85
2021/07/03 13:41:42;;;;;;;7.00;3.63;;;26.70;75.30;;;;;;5024811;28;20488;-86
2021/07/03 13:44:09;;;;;;;5.80;3.77;;;26.80;73.80;;;;;;5024555;28;20454;-85
2021/07/03 13:46:37;;;;;;;4.33;3.50;;;26.90;73.50;;;;;;5033820;28;20467;-84
2021/07/03 13:49:17;;;;;;;8.77;4.30;;;27.00;73.60;;;;;;5027640;28;20850;-85